Time;durP1;ratioP1;P1;durP2;ratioP2;P2;SDS_P1;SDS_P2;PMS_P1;PMS_P2;Temp;Humidity;BMP_temperature;BMP_pressure;BME280_temperature;BME280_humidity;BME280_pressure;Samples;Min_cycle;Max_cycle;Signal;HPM_P1;HPM_P2
2023/09/18 00:01:14;;;;;;;0.20;0.20;;;17.80;99.90;;;;;;5090215;28;20044;-77
2023/09/18 00:03:40;;;;;;;0.20;0.20;;;17.80;99.90;;;;;;5089765;28;20046;-77
2023/09/18 00:06:06;;;;;;;0.20;0.20;;;17.80;99.90;;;;;;5090600;28;20101;-77
2023/09/18 00:08:32;;;;;;;0.20;0.20;;;17.80;99.90;;;;;;5090679;28;20396;-78
2023/09/18 00:10:58;;;;;;;0.15;0.15;;;17.80;99.90;;;;;;5089714;28;20043;-78
2023/09/18 00:13:23;;;;;;;0.10;0.10;;;17.80;99.90;;;;;;5091170;28;20110;-77
2023/09/18 00:15:51;;;;;;;0.20;0.20;;;17.80;99.90;;;;;;5090015;28;20062;-77
2023/09/18 00:18:17;;;;;;;0.20;0.20;;;17.70;99.90;;;;;;5085551;28;20040;-78
2023/09/18 00:20:43;;;;;;;0.20;0.20;;;17.70;99.90;;;;;;5099021;27;20040;-77
2023/09/18 00:23:09;;;;;;;0.20;0.20;;;17.70;99.90;;;;;;5103949;28;20040;-78
2023/09/18 00:25:36;;;;;;;0.20;0.20;;;17.70;99.90;;;;;;5073785;28;20036;-77
2023/09/18 00:28:02;;;;;;;0.20;0.20;;;17.70;99.90;;;;;;5090401;28;20445;-78
2023/09/18 00:30:28;;;;;;;0.20;0.20;;;17.70;99.90;;;;;;5089606;28;20055;-77
2023/09/18 00:32:54;;;;;;;0.20;0.20;;;17.70;99.90;;;;;;5090394;28;20053;-78
2023/09/18 00:35:19;;;;;;;0.20;0.20;;;17.70;99.90;;;;;;5087786;28;20048;-78
2023/09/18 00:37:45;;;;;;;0.20;0.20;;;17.70;99.90;;;;;;5089553;28;20131;-78
2023/09/18 00:40:11;;;;;;;0.20;0.20;;;17.70;99.90;;;;;;5075325;28;20055;-78
2023/09/18 00:42:37;;;;;;;0.20;0.20;;;17.70;99.90;;;;;;5078287;28;20032;-77
2023/09/18 00:45:03;;;;;;;0.20;0.20;;;17.70;99.90;;;;;;5087928;28;20048;-77
2023/09/18 00:47:29;;;;;;;0.20;0.20;;;17.70;99.90;;;;;;5089577;28;20032;-78
2023/09/18 00:49:55;;;;;;;0.20;0.20;;;17.70;99.90;;;;;;5084346;28;20127;-78
2023/09/18 00:52:23;;;;;;;0.20;0.20;;;17.70;99.90;;;;;;5088483;28;20048;-78
2023/09/18 00:54:50;;;;;;;0.20;0.20;;;17.70;99.90;;;;;;5088217;28;20089;-77
2023/09/18 00:57:16;;;;;;;0.20;0.20;;;17.70;99.90;;;;;;5088693;28;20175;-77
2023/09/18 00:59:42;;;;;;;0.20;0.20;;;17.70;99.90;;;;;;5083080;28;20135;-78
2023/09/18 01:02:08;;;;;;;0.20;0.20;;;17.70;99.90;;;;;;5088178;28;20050;-77
2023/09/18 01:04:34;;;;;;;0.20;0.20;;;17.70;99.90;;;;;;5086249;28;20072;-78
2023/09/18 01:07:04;;;;;;;0.20;0.20;;;17.70;99.90;;;;;;5087398;28;20078;-77
2023/09/18 01:09:31;;;;;;;0.20;0.20;;;17.70;99.90;;;;;;5089350;28;20047;-77
2023/09/18 01:12:06;;;;;;;0.20;0.20;;;17.70;99.90;;;;;;5087781;28;20044;-77
2023/09/18 01:14:46;;;;;;;0.20;0.20;;;17.70;99.90;;;;;;5078238;28;20048;-78
2023/09/18 01:17:15;;;;;;;0.20;0.20;;;17.70;99.90;;;;;;5086536;28;20044;-78
2023/09/18 01:19:46;;;;;;;0.20;0.20;;;17.70;99.90;;;;;;5079171;28;20079;-78
2023/09/18 01:22:17;;;;;;;0.20;0.20;;;17.70;99.90;;;;;;5085855;28;20044;-78
2023/09/18 01:24:44;;;;;;;0.20;0.20;;;17.70;99.90;;;;;;5078885;28;20044;-77
2023/09/18 01:27:16;;;;;;;0.10;0.10;;;17.70;99.90;;;;;;5089004;28;20040;-77
2023/09/18 01:29:43;;;;;;;0.17;0.17;;;17.70;99.90;;;;;;5087105;28;20116;-77
2023/09/18 01:32:09;;;;;;;0.20;0.20;;;17.70;99.90;;;;;;5086279;28;20048;-78
2023/09/18 01:34:42;;;;;;;0.10;0.10;;;17.70;99.90;;;;;;5087047;28;20465;-77
2023/09/18 01:37:10;;;;;;;0.20;0.20;;;17.70;99.90;;;;;;5088383;28;20036;-77
2023/09/18 01:39:36;;;;;;;0.20;0.20;;;17.70;99.90;;;;;;5087214;28;20052;-77
2023/09/18 01:42:06;;;;;;;0.20;0.20;;;17.70;99.90;;;;;;5087196;28;20431;-77
2023/09/18 01:44:33;;;;;;;0.20;0.20;;;17.70;99.90;;;;;;5087540;28;20491;-77
2023/09/18 01:47:01;;;;;;;0.15;0.15;;;17.70;99.90;;;;;;5087055;28;20385;-77
2023/09/18 01:49:31;;;;;;;0.20;0.20;;;17.70;99.90;;;;;;5082544;28;20047;-77
2023/09/18 01:51:57;;;;;;;0.20;0.20;;;17.70;99.90;;;;;;5085831;28;20120;-77
2023/09/18 01:54:23;;;;;;;0.10;0.10;;;17.70;99.90;;;;;;5087361;28;20482;-77
2023/09/18 01:56:49;;;;;;;0.20;0.20;;;17.70;99.90;;;;;;5086747;28;20040;-77
2023/09/18 01:59:15;;;;;;;0.20;0.20;;;17.70;99.90;;;;;;5088968;28;20039;-77
2023/09/18 02:01:41;;;;;;;0.20;0.20;;;17.70;99.90;;;;;;5087368;28;20399;-77
2023/09/18 02:04:07;;;;;;;0.20;0.20;;;17.70;99.90;;;;;;5085009;28;20044;-77
2023/09/18 02:06:32;;;;;;;0.13;0.13;;;17.70;99.90;;;;;;5084100;28;20119;-78
2023/09/18 02:08:58;;;;;;;0.10;0.10;;;17.70;99.90;;;;;;5083377;28;20050;-77
2023/09/18 02:11:24;;;;;;;0.10;0.10;;;17.60;99.90;;;;;;5086875;28;20039;-77
2023/09/18 02:13:50;;;;;;;0.20;0.20;;;17.70;99.90;;;;;;5087035;28;20044;-77
2023/09/18 02:16:15;;;;;;;0.10;0.10;;;17.60;99.90;;;;;;5087350;28;20044;-77
2023/09/18 02:18:41;;;;;;;0.20;0.20;;;17.60;99.90;;;;;;5086399;28;20047;-78
2023/09/18 02:21:06;;;;;;;0.10;0.10;;;17.60;99.90;;;;;;5082889;28;20055;-78
2023/09/18 02:23:32;;;;;;;0.20;0.20;;;17.60;99.90;;;;;;5087731;28;20052;-77
2023/09/18 02:25:59;;;;;;;0.10;0.10;;;17.70;99.90;;;;;;5088464;28;20181;-77
2023/09/18 02:28:25;;;;;;;0.20;0.20;;;17.60;99.90;;;;;;5093797;28;20754;-77
2023/09/18 02:30:51;;;;;;;0.20;0.20;;;17.60;99.90;;;;;;5090640;28;20054;-77
2023/09/18 02:33:17;;;;;;;0.20;0.20;;;17.70;99.90;;;;;;5092521;28;20044;-77
2023/09/18 02:35:43;;;;;;;0.20;0.20;;;17.70;99.90;;;;;;5092468;28;20135;-77
2023/09/18 02:38:09;;;;;;;0.20;0.20;;;17.70;99.90;;;;;;5093450;28;20047;-77
2023/09/18 02:40:35;;;;;;;0.10;0.10;;;17.70;99.90;;;;;;5077155;28;20043;-77
2023/09/18 02:43:02;;;;;;;0.17;0.17;;;17.70;99.90;;;;;;5092536;28;20036;-77
2023/09/18 02:45:27;;;;;;;0.20;0.20;;;17.70;99.90;;;;;;5088740;28;20048;-77
2023/09/18 02:47:53;;;;;;;0.13;0.13;;;17.70;99.90;;;;;;5093471;28;20379;-77
2023/09/18 02:50:19;;;;;;;0.20;0.20;;;17.70;99.90;;;;;;5090490;28;20115;-77
2023/09/18 02:52:44;;;;;;;0.20;0.20;;;17.70;99.90;;;;;;5086980;28;20051;-77
2023/09/18 02:55:10;;;;;;;0.10;0.10;;;17.80;99.90;;;;;;5091359;28;20044;-77
2023/09/18 02:57:36;;;;;;;0.20;0.20;;;17.80;99.90;;;;;;5090593;28;20138;-77
2023/09/18 03:00:03;;;;;;;0.20;0.20;;;17.80;99.90;;;;;;5092904;28;20076;-77
2023/09/18 03:02:29;;;;;;;0.13;0.13;;;17.80;99.90;;;;;;5093061;28;20039;-77
2023/09/18 03:04:55;;;;;;;0.20;0.20;;;17.80;99.90;;;;;;5091105;28;20502;-77
2023/09/18 03:07:22;;;;;;;0.20;0.20;;;17.80;99.90;;;;;;5091313;28;20132;-77
2023/09/18 03:09:47;;;;;;;0.20;0.20;;;17.80;99.90;;;;;;5089139;28;20066;-77
2023/09/18 03:12:13;;;;;;;0.20;0.20;;;17.80;99.90;;;;;;5086053;28;20048;-77
2023/09/18 03:14:39;;;;;;;0.20;0.20;;;17.80;99.90;;;;;;5086750;28;20131;-78
2023/09/18 03:17:05;;;;;;;0.20;0.20;;;17.80;99.90;;;;;;5087910;28;20122;-77
2023/09/18 03:19:30;;;;;;;0.10;0.10;;;17.80;99.90;;;;;;5088386;28;20066;-77
2023/09/18 03:21:56;;;;;;;0.10;0.10;;;17.80;99.90;;;;;;5088152;28;20052;-77
2023/09/18 03:24:22;;;;;;;0.10;0.10;;;17.80;99.90;;;;;;5091611;28;20507;-77
2023/09/18 03:26:49;;;;;;;0.10;0.10;;;17.80;99.90;;;;;;5090810;28;20074;-78
2023/09/18 03:29:14;;;;;;;0.20;0.20;;;17.80;99.90;;;;;;5087686;28;20044;-77
2023/09/18 03:31:40;;;;;;;0.20;0.20;;;17.80;99.90;;;;;;5090182;28;20494;-78
2023/09/18 03:34:06;;;;;;;0.20;0.20;;;17.80;99.90;;;;;;5090177;28;20036;-78
2023/09/18 03:36:32;;;;;;;0.20;0.20;;;17.80;99.90;;;;;;5090307;28;20438;-78
2023/09/18 03:38:58;;;;;;;0.10;0.10;;;17.80;99.90;;;;;;5087763;28;20068;-77
2023/09/18 03:41:24;;;;;;;0.10;0.10;;;17.80;99.90;;;;;;5077352;28;20075;-77
2023/09/18 03:43:50;;;;;;;0.20;0.20;;;17.80;99.90;;;;;;5091695;28;20036;-77
2023/09/18 03:46:16;;;;;;;0.20;0.20;;;17.80;99.90;;;;;;5077975;28;20051;-77
2023/09/18 03:48:41;;;;;;;0.20;0.20;;;17.80;99.90;;;;;;5070052;28;20044;-78
2023/09/18 03:51:08;;;;;;;0.20;0.20;;;17.80;99.90;;;;;;5079981;28;20035;-77
2023/09/18 03:53:34;;;;;;;0.20;0.20;;;17.80;99.90;;;;;;5090819;28;20044;-78
2023/09/18 03:56:00;;;;;;;0.20;0.20;;;17.80;99.90;;;;;;5089544;28;20484;-77
2023/09/18 03:58:26;;;;;;;0.20;0.20;;;17.80;99.90;;;;;;5090418;28;20476;-77
2023/09/18 04:00:52;;;;;;;0.20;0.20;;;17.80;99.90;;;;;;5088557;28;20051;-78
2023/09/18 04:03:18;;;;;;;0.20;0.20;;;17.80;99.90;;;;;;5088841;28;20051;-78
2023/09/18 04:05:45;;;;;;;0.15;0.15;;;17.80;99.90;;;;;;5089401;28;20052;-77
2023/09/18 04:08:11;;;;;;;0.20;0.20;;;17.80;99.90;;;;;;5088336;28;20044;-77
2023/09/18 04:10:37;;;;;;;0.20;0.20;;;17.80;99.90;;;;;;5089216;28;20059;-77
2023/09/18 04:13:02;;;;;;;0.20;0.20;;;17.80;99.90;;;;;;5091247;28;20048;-77
2023/09/18 04:15:30;;;;;;;0.17;0.17;;;17.80;99.90;;;;;;5089399;28;20066;-77
2023/09/18 04:17:56;;;;;;;0.20;0.20;;;17.80;99.90;;;;;;5085842;28;20139;-77
2023/09/18 04:20:22;;;;;;;0.20;0.20;;;17.80;99.90;;;;;;5083553;28;20131;-78
2023/09/18 04:23:21;;;;;;;0.17;0.17;;;17.80;99.90;;;;;;5081979;28;20052;-77
2023/09/18 04:25:47;;;;;;;0.20;0.20;;;17.80;99.90;;;;;;5085183;28;20048;-77
2023/09/18 04:28:15;;;;;;;0.20;0.20;;;17.80;99.90;;;;;;5089907;28;20040;-77
2023/09/18 04:30:41;;;;;;;0.10;0.10;;;17.90;99.90;;;;;;5090444;28;20525;-77
2023/09/18 04:33:06;;;;;;;0.20;0.20;;;17.90;99.90;;;;;;5089154;28;20131;-78
2023/09/18 04:35:32;;;;;;;0.10;0.10;;;17.80;99.90;;;;;;5089265;28;20490;-77
2023/09/18 04:37:59;;;;;;;0.20;0.20;;;17.90;99.90;;;;;;5089637;28;20055;-77
2023/09/18 04:40:26;;;;;;;0.20;0.20;;;17.90;99.90;;;;;;5088788;28;20047;-77
2023/09/18 04:42:52;;;;;;;0.10;0.10;;;17.90;99.90;;;;;;5089381;28;20679;-77
2023/09/18 04:45:18;;;;;;;0.10;0.10;;;17.90;99.90;;;;;;5082156;28;20548;-77
2023/09/18 04:47:44;;;;;;;0.10;0.10;;;17.90;99.90;;;;;;5069872;28;20040;-77
2023/09/18 04:50:10;;;;;;;0.20;0.20;;;18.00;99.90;;;;;;5070439;28;20049;-78
2023/09/18 04:52:36;;;;;;;0.20;0.20;;;18.10;99.90;;;;;;5087775;28;20039;-77
2023/09/18 04:55:03;;;;;;;0.20;0.20;;;17.90;99.90;;;;;;5090856;28;20063;-78
2023/09/18 04:57:28;;;;;;;0.20;0.20;;;18.00;99.90;;;;;;5088441;28;20484;-78
2023/09/18 04:59:54;;;;;;;0.20;0.20;;;17.90;99.90;;;;;;5088467;28;20062;-78
2023/09/18 05:02:20;;;;;;;0.10;0.10;;;17.80;99.90;;;;;;5082043;28;20047;-78
2023/09/18 05:04:45;;;;;;;0.15;0.15;;;18.00;99.90;;;;;;5087851;28;20047;-78
2023/09/18 05:07:11;;;;;;;0.20;0.20;;;17.90;99.90;;;;;;5080452;28;20150;-77
2023/09/18 05:09:38;;;;;;;0.17;0.17;;;17.80;99.90;;;;;;5074174;28;20124;-78
2023/09/18 05:12:04;;;;;;;0.20;0.20;;;18.20;99.90;;;;;;5087689;28;20047;-78
2023/09/18 05:14:30;;;;;;;0.20;0.20;;;18.10;99.90;;;;;;5088950;28;20044;-78
2023/09/18 05:16:56;;;;;;;0.20;0.20;;;18.00;99.90;;;;;;5085678;28;20058;-78
2023/09/18 05:19:21;;;;;;;0.20;0.20;;;18.00;99.90;;;;;;5087840;28;20047;-78
2023/09/18 05:21:48;;;;;;;0.20;0.20;;;18.00;99.90;;;;;;5080862;28;20048;-78
2023/09/18 05:24:13;;;;;;;0.20;0.20;;;18.00;99.90;;;;;;5077258;28;20089;-77
2023/09/18 05:26:39;;;;;;;0.17;0.17;;;18.00;99.90;;;;;;5081893;28;20566;-77
2023/09/18 05:29:04;;;;;;;0.17;0.17;;;18.00;99.90;;;;;;5084310;28;20376;-78
2023/09/18 05:31:30;;;;;;;0.20;0.20;;;18.00;99.90;;;;;;5085713;28;20036;-78
2023/09/18 05:33:56;;;;;;;0.20;0.20;;;18.10;99.90;;;;;;5087263;28;20044;-77
2023/09/18 05:36:21;;;;;;;0.20;0.20;;;18.10;99.90;;;;;;5088895;28;20044;-78
2023/09/18 05:38:47;;;;;;;0.20;0.20;;;18.10;99.90;;;;;;5089312;28;20058;-78
2023/09/18 05:41:13;;;;;;;0.20;0.20;;;18.20;99.90;;;;;;5086235;28;20131;-78
2023/09/18 05:43:38;;;;;;;0.20;0.20;;;18.20;99.90;;;;;;5088961;28;20032;-78
2023/09/18 05:46:04;;;;;;;0.10;0.10;;;18.20;99.90;;;;;;5069836;28;20150;-78
2023/09/18 05:48:29;;;;;;;0.20;0.20;;;18.20;99.90;;;;;;5075171;28;20043;-77
2023/09/18 05:50:55;;;;;;;0.20;0.20;;;18.20;99.90;;;;;;5087520;28;20105;-78
2023/09/18 05:53:21;;;;;;;0.20;0.20;;;18.20;99.90;;;;;;5090317;28;20123;-78
2023/09/18 05:55:47;;;;;;;0.20;0.20;;;18.30;99.90;;;;;;5087621;28;20070;-77
2023/09/18 05:58:13;;;;;;;0.10;0.10;;;18.30;99.90;;;;;;5087699;28;20075;-77
2023/09/18 06:00:39;;;;;;;0.20;0.20;;;18.30;99.90;;;;;;5089063;28;20059;-77
2023/09/18 06:03:06;;;;;;;0.10;0.10;;;18.30;99.90;;;;;;5089650;28;20441;-77
2023/09/18 06:05:33;;;;;;;0.20;0.20;;;18.30;99.90;;;;;;5087666;28;20344;-78
2023/09/18 06:08:00;;;;;;;0.20;0.20;;;18.30;99.90;;;;;;5088034;28;20483;-77
2023/09/18 06:10:25;;;;;;;0.20;0.20;;;18.40;99.90;;;;;;5087506;28;20093;-77
2023/09/18 06:12:51;;;;;;;0.20;0.20;;;18.40;99.90;;;;;;5088860;28;20043;-77
2023/09/18 06:15:17;;;;;;;0.20;0.20;;;18.40;99.90;;;;;;5089052;28;20091;-77
2023/09/18 06:17:43;;;;;;;0.10;0.10;;;18.40;99.90;;;;;;5088217;28;20131;-77
2023/09/18 06:20:11;;;;;;;0.20;0.20;;;18.40;99.90;;;;;;5089638;28;20447;-77
2023/09/18 06:22:38;;;;;;;0.20;0.20;;;18.50;99.90;;;;;;5071826;28;20144;-77
2023/09/18 06:25:09;;;;;;;0.20;0.20;;;18.50;99.90;;;;;;5081992;28;20052;-77
2023/09/18 06:27:36;;;;;;;0.20;0.20;;;18.50;99.90;;;;;;5087363;28;20052;-77
2023/09/18 06:30:05;;;;;;;0.10;0.10;;;18.50;99.90;;;;;;5085926;28;20044;-77
2023/09/18 06:32:31;;;;;;;0.10;0.10;;;18.50;99.90;;;;;;5075995;28;20100;-80
2023/09/18 06:34:57;;;;;;;0.13;0.13;;;18.60;99.90;;;;;;5084863;28;20166;-80
2023/09/18 06:37:24;;;;;;;0.20;0.20;;;18.60;99.90;;;;;;5081950;28;20535;-80
2023/09/18 06:39:49;;;;;;;0.20;0.20;;;18.60;99.90;;;;;;5083406;28;20051;-80
2023/09/18 06:42:15;;;;;;;0.20;0.20;;;18.60;99.90;;;;;;5085735;28;20036;-80
2023/09/18 06:44:41;;;;;;;0.20;0.20;;;18.60;99.90;;;;;;5083210;28;20047;-81
2023/09/18 06:47:06;;;;;;;0.20;0.20;;;18.60;99.90;;;;;;5074737;28;20040;-81
2023/09/18 06:49:32;;;;;;;0.20;0.20;;;18.60;99.90;;;;;;5086583;28;20047;-81
2023/09/18 06:51:58;;;;;;;0.20;0.20;;;18.70;99.90;;;;;;5085085;28;20051;-81
2023/09/18 06:54:24;;;;;;;0.20;0.20;;;18.70;99.90;;;;;;5082048;28;20093;-80
2023/09/18 06:56:49;;;;;;;0.10;0.10;;;18.70;99.90;;;;;;5080361;28;20415;-81
2023/09/18 06:59:15;;;;;;;0.20;0.20;;;18.70;99.90;;;;;;5087235;28;20048;-80
2023/09/18 07:01:41;;;;;;;0.20;0.20;;;18.70;99.90;;;;;;5081917;28;20055;-80
2023/09/18 07:04:07;;;;;;;0.20;0.20;;;18.70;99.90;;;;;;5073999;28;20154;-80
2023/09/18 07:06:33;;;;;;;0.20;0.20;;;18.70;99.90;;;;;;5085259;28;21151;-80
2023/09/18 07:08:59;;;;;;;0.17;0.17;;;18.70;99.90;;;;;;5083408;28;20043;-81
2023/09/18 07:11:25;;;;;;;0.20;0.20;;;18.70;99.90;;;;;;5082440;28;20487;-83
2023/09/18 07:13:51;;;;;;;0.10;0.10;;;18.70;99.90;;;;;;5087256;28;20541;-82
2023/09/18 07:16:16;;;;;;;0.20;0.20;;;18.70;99.90;;;;;;5088067;28;20077;-82
2023/09/18 07:18:43;;;;;;;0.20;0.20;;;18.70;99.90;;;;;;5088656;28;20040;-83
2023/09/18 07:21:08;;;;;;;0.20;0.20;;;18.70;99.90;;;;;;5089122;28;20059;-84
2023/09/18 07:23:37;;;;;;;0.20;0.20;;;18.70;99.90;;;;;;5086349;28;20040;-83
2023/09/18 07:26:03;;;;;;;0.20;0.20;;;18.60;99.90;;;;;;5084270;28;20083;-84
2023/09/18 07:28:29;;;;;;;0.20;0.20;;;18.70;99.90;;;;;;5091580;28;20044;-84
2023/09/18 07:30:54;;;;;;;0.10;0.10;;;18.70;99.90;;;;;;5089192;28;20181;-84
2023/09/18 07:33:20;;;;;;;0.20;0.20;;;18.60;99.90;;;;;;5088660;28;20383;-84
2023/09/18 07:35:51;;;;;;;0.20;0.20;;;18.60;99.90;;;;;;5085594;28;20043;-83
2023/09/18 07:38:19;;;;;;;0.20;0.20;;;18.60;99.90;;;;;;5081085;28;20036;-84
2023/09/18 07:40:45;;;;;;;0.20;0.20;;;18.50;99.90;;;;;;5082631;28;20096;-85
2023/09/18 07:43:12;;;;;;;0.20;0.20;;;18.50;99.90;;;;;;5091143;28;20076;-82
2023/09/18 07:45:40;;;;;;;0.20;0.20;;;18.50;99.90;;;;;;5091182;28;20043;-83
2023/09/18 07:48:07;;;;;;;0.20;0.20;;;18.50;99.90;;;;;;5076087;28;20036;-82
2023/09/18 07:50:33;;;;;;;0.20;0.20;;;18.40;99.90;;;;;;5079716;28;20048;-82
2023/09/18 07:53:00;;;;;;;0.20;0.20;;;18.40;99.90;;;;;;5087743;28;20105;-82
2023/09/18 07:55:26;;;;;;;0.20;0.20;;;18.30;99.90;;;;;;5090174;28;20119;-82
2023/09/18 07:57:52;;;;;;;0.20;0.20;;;18.40;99.90;;;;;;5083857;28;20535;-83
2023/09/18 08:00:18;;;;;;;0.20;0.20;;;18.30;99.90;;;;;;5088971;28;20061;-82
2023/09/18 08:02:44;;;;;;;0.20;0.20;;;18.40;99.90;;;;;;5078405;28;20133;-82
2023/09/18 08:05:15;;;;;;;0.20;0.20;;;18.40;99.90;;;;;;5078157;28;20074;-82
2023/09/18 08:07:40;;;;;;;0.20;0.20;;;18.30;99.90;;;;;;5078930;28;20052;-81
2023/09/18 08:10:08;;;;;;;0.20;0.20;;;18.40;99.90;;;;;;5089829;28;20713;-83
2023/09/18 08:12:34;;;;;;;0.20;0.20;;;18.40;99.90;;;;;;5082986;28;20086;-82
2023/09/18 08:15:02;;;;;;;0.20;0.20;;;18.40;99.90;;;;;;5086410;28;20058;-82
2023/09/18 08:17:28;;;;;;;0.20;0.20;;;18.40;99.90;;;;;;5086795;28;20043;-80
2023/09/18 08:19:54;;;;;;;0.20;0.20;;;18.40;99.90;;;;;;5089833;28;20071;-82
2023/09/18 08:22:21;;;;;;;0.20;0.20;;;18.40;99.90;;;;;;5084041;28;20047;-84
2023/09/18 08:24:52;;;;;;;0.20;0.20;;;18.40;99.90;;;;;;5081392;28;20052;-83
2023/09/18 08:27:19;;;;;;;0.20;0.20;;;18.40;99.90;;;;;;5079562;28;20048;-83
2023/09/18 08:29:45;;;;;;;0.20;0.20;;;18.40;99.90;;;;;;5090619;28;20101;-82
2023/09/18 08:32:11;;;;;;;0.20;0.20;;;18.40;99.90;;;;;;5085793;28;20115;-82
2023/09/18 08:34:38;;;;;;;0.20;0.20;;;18.50;99.90;;;;;;5088595;28;20173;-83
2023/09/18 08:37:04;;;;;;;0.10;0.10;;;18.50;99.90;;;;;;5085807;28;20032;-82
2023/09/18 08:39:31;;;;;;;0.20;0.20;;;18.50;99.90;;;;;;5081674;28;20539;-83
2023/09/18 08:42:03;;;;;;;0.20;0.20;;;18.50;99.90;;;;;;5086797;28;20086;-83
2023/09/18 08:44:30;;;;;;;0.20;0.20;;;18.50;99.90;;;;;;5088831;28;20040;-90
2023/09/18 08:46:56;;;;;;;0.20;0.20;;;18.50;99.90;;;;;;5068195;28;20069;-83
2023/09/18 08:49:26;;;;;;;0.20;0.20;;;18.50;99.90;;;;;;5074822;28;20049;-84
2023/09/18 08:51:54;;;;;;;0.20;0.20;;;18.50;99.90;;;;;;5081212;28;20049;-82
2023/09/18 08:54:23;;;;;;;0.20;0.20;;;18.50;99.90;;;;;;5086234;28;20048;-82
2023/09/18 08:56:50;;;;;;;0.20;0.20;;;18.60;99.90;;;;;;5070314;28;20059;-83
2023/09/18 08:59:16;;;;;;;0.20;0.20;;;18.60;99.90;;;;;;5072858;28;20048;-82
2023/09/18 09:01:42;;;;;;;0.20;0.20;;;18.60;99.90;;;;;;5080114;28;20047;-83
2023/09/18 09:04:08;;;;;;;0.20;0.20;;;18.60;99.90;;;;;;5086689;28;20044;-83
2023/09/18 09:06:33;;;;;;;0.20;0.20;;;18.70;99.90;;;;;;5081608;28;20063;-82
2023/09/18 09:08:59;;;;;;;0.20;0.20;;;18.60;99.90;;;;;;5086893;28;20107;-83
2023/09/18 09:11:25;;;;;;;0.20;0.20;;;18.70;99.90;;;;;;5084832;28;21512;-83
2023/09/18 09:14:17;;;;;;;0.20;0.20;;;18.70;99.90;;;;;;5082950;28;20062;-83
2023/09/18 09:16:48;;;;;;;0.20;0.20;;;18.80;99.90;;;;;;5080485;28;20083;-80
2023/09/18 09:19:15;;;;;;;;;;;18.70;99.90;;;;;;5082391;28;20062;-79
2023/09/18 09:21:43;;;;;;;0.20;0.20;;;18.90;99.90;;;;;;5081861;28;19931;-81
2023/09/18 09:24:13;;;;;;;0.13;0.13;;;18.90;99.90;;;;;;5087911;28;20490;-80
2023/09/18 09:26:42;;;;;;;0.15;0.15;;;18.80;99.90;;;;;;5084850;28;20104;-81
2023/09/18 09:29:19;;;;;;;0.20;0.20;;;18.90;99.90;;;;;;5090983;28;20046;-81
2023/09/18 09:31:46;;;;;;;0.20;0.20;;;19.00;99.90;;;;;;5080171;28;20099;-81
2023/09/18 09:34:12;;;;;;;0.20;0.20;;;19.00;99.90;;;;;;5090412;28;20507;-81
2023/09/18 09:36:55;;;;;;;0.20;0.20;;;19.00;99.90;;;;;;5092621;28;20053;-79
2023/09/18 09:39:25;;;;;;;0.20;0.20;;;19.00;99.90;;;;;;5085960;28;20040;-81
2023/09/18 09:41:54;;;;;;;0.20;0.20;;;19.00;99.90;;;;;;5091329;28;20064;-80
2023/09/18 09:44:22;;;;;;;0.10;0.10;;;19.20;99.90;;;;;;5088400;28;20302;-80
2023/09/18 09:46:51;;;;;;;0.20;0.20;;;19.10;99.90;;;;;;5086517;28;20126;-80
2023/09/18 09:49:19;;;;;;;0.10;0.10;;;19.30;99.90;;;;;;5089785;28;20050;-80
2023/09/18 09:51:45;;;;;;;0.20;0.20;;;19.30;99.90;;;;;;5084661;28;20119;-80
2023/09/18 09:54:12;;;;;;;0.20;0.20;;;19.40;99.90;;;;;;5079514;28;20076;-82
2023/09/18 09:56:50;;;;;;;0.10;0.10;;;19.40;99.90;;;;;;5083567;28;20122;-82
2023/09/18 09:59:18;;;;;;;0.20;0.20;;;19.40;99.90;;;;;;5088201;28;20035;-82
2023/09/18 10:01:49;;;;;;;0.10;0.10;;;19.40;99.90;;;;;;5087993;28;20567;-82
2023/09/18 10:04:17;;;;;;;;;;;19.40;99.90;;;;;;5087628;28;20043;-82
2023/09/18 10:06:52;;;;;;;0.20;0.20;;;19.50;99.90;;;;;;5087723;28;20232;-82
2023/09/18 10:09:20;;;;;;;0.25;0.25;;;19.50;99.90;;;;;;5085922;28;20048;-82
2023/09/18 10:11:51;;;;;;;0.20;0.20;;;19.50;99.90;;;;;;5087541;28;20044;-83
2023/09/18 10:14:26;;;;;;;0.20;0.20;;;19.50;99.90;;;;;;5087268;28;20521;-83
2023/09/18 10:16:55;;;;;;;0.10;0.10;;;19.60;99.90;;;;;;5083891;28;20555;-82
2023/09/18 10:19:35;;;;;;;0.15;0.15;;;19.70;99.90;;;;;;5087878;28;20055;-82
2023/09/18 10:22:16;;;;;;;0.20;0.20;;;19.80;99.90;;;;;;5086673;28;20044;-82
2023/09/18 10:24:46;;;;;;;0.20;0.20;;;19.80;99.90;;;;;;5076069;28;20661;-81
2023/09/18 10:27:14;;;;;;;0.20;0.20;;;19.80;99.90;;;;;;5068467;28;20040;-81
2023/09/18 10:29:41;;;;;;;0.25;0.25;;;19.90;99.90;;;;;;5072456;28;20519;-82
2023/09/18 10:32:07;;;;;;;0.15;0.15;;;20.00;99.90;;;;;;5085679;28;20043;-82
2023/09/18 10:34:34;;;;;;;0.20;0.20;;;20.10;99.90;;;;;;5084472;28;21162;-82
2023/09/18 10:37:07;;;;;;;0.47;0.47;;;20.20;99.90;;;;;;5076951;28;20040;-81
2023/09/18 10:39:39;;;;;;;0.20;0.20;;;20.20;99.90;;;;;;5088075;28;20044;-79
2023/09/18 10:42:07;;;;;;;0.20;0.20;;;20.30;99.90;;;;;;5098225;28;20043;-80
2023/09/18 10:44:33;;;;;;;0.20;0.20;;;20.40;99.90;;;;;;5091279;28;20467;-81
2023/09/18 10:47:01;;;;;;;0.20;0.20;;;20.40;99.90;;;;;;5088765;28;20503;-81
2023/09/18 10:49:27;;;;;;;0.20;0.20;;;20.50;99.90;;;;;;5083406;28;20050;-82
2023/09/18 10:51:54;;;;;;;0.15;0.15;;;20.50;99.90;;;;;;5089020;28;20048;-82
2023/09/18 10:54:22;;;;;;;0.20;0.20;;;20.60;99.90;;;;;;5091410;28;20040;-81
2023/09/18 10:56:48;;;;;;;0.20;0.20;;;20.70;99.90;;;;;;5094268;28;20048;-80
2023/09/18 10:59:15;;;;;;;0.20;0.20;;;20.90;99.90;;;;;;5094936;28;20422;-81
2023/09/18 11:01:42;;;;;;;0.20;0.20;;;21.00;99.90;;;;;;5086514;28;20039;-82
2023/09/18 11:04:09;;;;;;;0.20;0.20;;;21.10;99.90;;;;;;5091806;28;20105;-82
2023/09/18 11:07:24;;;;;;;0.10;0.10;;;21.20;99.90;;;;;;5093125;28;20449;-82
2023/09/18 11:09:50;;;;;;;0.17;0.17;;;21.30;99.90;;;;;;5032134;28;20115;-81
2023/09/18 11:12:17;;;;;;;0.20;0.20;;;21.30;99.90;;;;;;5087464;28;20499;-86
2023/09/18 11:14:53;;;;;;;0.30;0.30;;;21.20;99.90;;;;;;5089894;28;20112;-82
2023/09/18 11:17:31;;;;;;;0.20;0.20;;;21.20;99.90;;;;;;5111442;28;20054;-82
2023/09/18 11:20:16;;;;;;;0.90;0.60;;;21.30;99.90;;;;;;5090055;28;20499;-82
2023/09/18 11:22:49;;;;;;;0.20;0.20;;;21.40;99.90;;;;;;5091300;28;20043;-80
2023/09/18 11:25:41;;;;;;;0.17;0.17;;;21.60;99.90;;;;;;5082893;28;20071;-81
2023/09/18 11:28:15;;;;;;;0.20;0.20;;;21.70;99.90;;;;;;5084456;28;20035;-80
2023/09/18 11:31:01;;;;;;;0.20;0.20;;;21.70;99.90;;;;;;5091697;28;20130;-81
2023/09/18 11:33:38;;;;;;;0.38;0.30;;;21.70;99.90;;;;;;5090492;28;20036;-81
2023/09/18 11:36:14;;;;;;;0.10;0.10;;;21.60;99.90;;;;;;5086818;28;20113;-80
2023/09/18 11:39:03;;;;;;;0.20;0.20;;;21.70;99.90;;;;;;5085410;28;20119;-80
2023/09/18 11:41:32;;;;;;;0.20;0.20;;;21.70;99.90;;;;;;5081478;28;20048;-80
2023/09/18 11:44:18;;;;;;;0.20;0.20;;;22.00;99.90;;;;;;5090519;28;20048;-80
2023/09/18 11:46:52;;;;;;;0.20;0.20;;;22.10;99.90;;;;;;5087410;28;20130;-81
2023/09/18 11:49:22;;;;;;;0.20;0.20;;;22.20;99.90;;;;;;5086531;28;20051;-81
2023/09/18 11:51:48;;;;;;;0.20;0.20;;;22.40;99.90;;;;;;5090388;28;20048;-81
2023/09/18 11:54:16;;;;;;;0.20;0.20;;;22.50;99.90;;;;;;5089303;28;20054;-81
2023/09/18 11:56:42;;;;;;;0.20;0.20;;;22.40;99.90;;;;;;5071534;28;20575;-81
2023/09/18 11:59:09;;;;;;;0.45;0.32;;;22.30;99.90;;;;;;5078847;28;20043;-83
2023/09/18 12:01:39;;;;;;;0.35;0.30;;;22.20;99.90;;;;;;5077392;28;20056;-81
2023/09/18 12:04:09;;;;;;;0.30;0.30;;;22.20;99.90;;;;;;5070397;28;20044;-81
2023/09/18 12:06:41;;;;;;;0.20;0.20;;;22.10;99.90;;;;;;5090330;28;20047;-81
2023/09/18 12:09:08;;;;;;;0.20;0.20;;;22.00;99.90;;;;;;5086413;28;20086;-80
2023/09/18 12:11:35;;;;;;;0.20;0.20;;;22.00;99.90;;;;;;5089575;28;20036;-81
2023/09/18 12:14:05;;;;;;;0.20;0.20;;;21.90;99.90;;;;;;5089609;28;20047;-80
2023/09/18 12:16:31;;;;;;;0.20;0.20;;;21.90;99.90;;;;;;5087519;28;20428;-81
2023/09/18 12:18:57;;;;;;;0.20;0.20;;;22.00;99.90;;;;;;5081007;28;20047;-79
2023/09/18 12:21:23;;;;;;;0.20;0.20;;;22.20;99.90;;;;;;5093442;28;20031;-81
2023/09/18 12:23:50;;;;;;;0.20;0.20;;;22.30;99.90;;;;;;5089373;28;20066;-81
2023/09/18 12:26:17;;;;;;;0.20;0.20;;;22.50;99.90;;;;;;5091728;28;20043;-80
2023/09/18 12:28:44;;;;;;;0.20;0.20;;;22.70;99.90;;;;;;5077010;28;20040;-80
2023/09/18 12:31:14;;;;;;;0.20;0.20;;;22.80;99.90;;;;;;5089163;28;20403;-81
2023/09/18 12:33:43;;;;;;;0.20;0.20;;;22.90;99.90;;;;;;5089031;28;20055;-81
2023/09/18 12:36:10;;;;;;;0.20;0.20;;;22.90;99.90;;;;;;5089520;28;20052;-81
2023/09/18 12:38:36;;;;;;;0.10;0.10;;;22.90;99.90;;;;;;5088000;28;20423;-79
2023/09/18 12:41:06;;;;;;;0.10;0.10;;;22.80;99.90;;;;;;5075820;28;20491;-80
2023/09/18 12:43:43;;;;;;;0.20;0.20;;;22.60;99.90;;;;;;5085858;28;20169;-79
2023/09/18 12:46:09;;;;;;;0.20;0.20;;;22.50;99.90;;;;;;5088071;28;20063;-80
2023/09/18 12:48:38;;;;;;;0.15;0.15;;;22.40;99.90;;;;;;5085016;28;20044;-81
2023/09/18 12:51:07;;;;;;;0.20;0.20;;;22.30;99.90;;;;;;5089303;28;20048;-79